createdAt,value
2023-02-06T00:01:05.824Z,77.27
2023-02-06T00:03:35.029Z,77.50
2023-02-06T00:06:03.164Z,77.41
2023-02-06T00:08:31.164Z,77.23
2023-02-06T00:10:58.982Z,77.31
2023-02-06T00:13:26.841Z,77.03
2023-02-06T00:15:54.744Z,77.38
2023-02-06T00:18:22.569Z,77.49
2023-02-06T00:20:51.910Z,77.48
2023-02-06T00:23:20.143Z,77.54
2023-02-06T00:25:48.162Z,77.26
2023-02-06T00:28:16.292Z,77.28
2023-02-06T00:30:48.463Z,77.38
2023-02-06T00:33:16.507Z,77.50
2023-02-06T00:35:44.378Z,77.29
2023-02-06T00:38:13.945Z,77.62
2023-02-06T00:40:41.967Z,77.21
2023-02-06T00:43:09.938Z,77.59
2023-02-06T00:45:37.962Z,77.52
2023-02-06T00:48:09.291Z,78.01
2023-02-06T00:50:37.214Z,77.43
2023-02-06T00:53:05.111Z,77.38
2023-02-06T00:55:34.577Z,77.83
2023-02-06T00:58:02.906Z,77.49
2023-02-06T01:00:30.769Z,77.57
2023-02-06T01:02:58.650Z,77.39
2023-02-06T01:05:26.901Z,77.58
2023-02-06T01:07:54.829Z,77.77
2023-02-06T01:10:23.211Z,77.68
2023-02-06T01:12:52.560Z,77.49
2023-02-06T01:15:20.416Z,77.85
2023-02-06T01:17:48.295Z,77.47
2023-02-06T01:20:17.334Z,77.53
2023-02-06T01:22:45.364Z,77.53
2023-02-06T01:25:13.222Z,77.37
2023-02-06T01:27:41.549Z,77.74
2023-02-06T01:30:12.390Z,77.75
2023-02-06T01:32:41.631Z,77.84
2023-02-06T01:35:13.595Z,77.87
2023-02-06T01:37:41.603Z,77.66
2023-02-06T01:40:13.838Z,77.73
2023-02-06T01:42:42.763Z,77.71
2023-02-06T01:45:53.033Z,77.54
2023-02-06T01:48:27.907Z,77.87
2023-02-06T01:50:58.583Z,77.76
2023-02-06T01:53:27.828Z,77.79
2023-02-06T01:55:59.536Z,77.60
2023-02-06T01:58:31.090Z,77.81
2023-02-06T02:01:01.960Z,77.77
2023-02-06T02:03:33.018Z,78.10
2023-02-06T02:06:07.236Z,77.44
2023-02-06T02:08:38.810Z,77.64
2023-02-06T02:11:08.507Z,77.26
2023-02-06T02:13:38.358Z,77.98
2023-02-06T02:16:16.446Z,77.64
2023-02-06T02:19:01.202Z,77.63
2023-02-06T02:22:00.994Z,77.84
2023-02-06T02:24:50.987Z,77.63
2023-02-06T02:27:41.817Z,77.61
2023-02-06T02:30:42.329Z,78.16
2023-02-06T02:33:55.687Z,77.83
2023-02-06T02:36:31.682Z,77.71
2023-02-06T02:39:08.999Z,77.64
2023-02-06T02:41:44.686Z,78.20
2023-02-06T02:44:16.899Z,77.77
2023-02-06T02:46:47.689Z,78.21
2023-02-06T02:49:19.442Z,78.15
2023-02-06T02:51:50.491Z,77.77
2023-02-06T02:54:18.803Z,77.90
2023-02-06T02:56:47.239Z,77.56
2023-02-06T02:59:23.985Z,77.79
2023-02-06T03:01:59.119Z,78.06
2023-02-06T03:04:32.332Z,78.11
2023-02-06T03:07:23.071Z,78.02
2023-02-06T03:10:00.560Z,77.90
2023-02-06T03:12:39.469Z,77.71
2023-02-06T03:15:19.908Z,78.01
2023-02-06T03:17:52.744Z,77.97
2023-02-06T03:20:22.858Z,78.13
2023-02-06T03:22:54.782Z,77.70
2023-02-06T03:25:29.359Z,77.92
2023-02-06T03:28:00.955Z,78.03
2023-02-06T03:30:31.019Z,77.93
2023-02-06T03:33:06.021Z,77.68
2023-02-06T03:35:38.185Z,78.16
2023-02-06T03:38:09.710Z,77.99
2023-02-06T03:40:38.835Z,77.78
2023-02-06T03:43:09.746Z,78.20
2023-02-06T03:45:42.034Z,77.86
2023-02-06T03:48:13.610Z,77.74
2023-02-06T03:50:45.388Z,78.54
2023-02-06T03:53:15.861Z,78.03
2023-02-06T03:55:45.454Z,77.93
2023-02-06T03:58:15.128Z,78.27
2023-02-06T04:00:45.758Z,78.00
2023-02-06T04:03:15.057Z,77.91
2023-02-06T04:05:43.319Z,78.05
2023-02-06T04:08:11.129Z,77.93
2023-02-06T04:10:40.716Z,78.25
2023-02-06T04:13:08.564Z,78.27
2023-02-06T04:15:36.903Z,78.15
2023-02-06T04:18:06.128Z,78.03
2023-02-06T04:20:34.309Z,78.16
2023-02-06T04:23:02.559Z,78.26
2023-02-06T04:25:30.381Z,78.52
2023-02-06T04:27:59.596Z,78.30
2023-02-06T04:30:27.781Z,78.42
2023-02-06T04:32:55.734Z,78.64
2023-02-06T04:35:23.862Z,78.34
2023-02-06T04:37:52.131Z,77.99
2023-02-06T04:40:20.371Z,78.33
2023-02-06T04:42:48.521Z,78.37
2023-02-06T04:45:18.082Z,78.21
2023-02-06T04:47:49.445Z,78.17
2023-02-06T04:50:17.804Z,78.09
2023-02-06T04:52:45.656Z,78.21
2023-02-06T04:55:13.555Z,78.47
2023-02-06T04:57:41.646Z,77.99
2023-02-06T05:00:11.062Z,78.16
2023-02-06T05:02:40.609Z,78.21
2023-02-06T05:05:10.426Z,78.33
2023-02-06T05:07:38.412Z,78.60
2023-02-06T05:10:08.976Z,78.73
2023-02-06T05:12:37.254Z,78.34
2023-02-06T05:15:05.929Z,78.05
2023-02-06T05:17:33.893Z,78.50
2023-02-06T05:20:03.305Z,78.52
2023-02-06T05:22:31.085Z,77.85
2023-02-06T05:24:58.928Z,78.14
2023-02-06T05:27:26.876Z,77.99
2023-02-06T05:29:54.685Z,78.50
2023-02-06T05:32:22.945Z,78.34
2023-02-06T05:34:50.822Z,78.57
2023-02-06T05:37:19.949Z,78.32
2023-02-06T05:39:47.988Z,78.22
2023-02-06T05:42:15.802Z,78.17
2023-02-06T05:44:43.629Z,78.11
2023-02-06T05:47:11.519Z,78.82
2023-02-06T05:49:39.266Z,78.52
2023-02-06T05:52:07.248Z,78.37
2023-02-06T05:54:37.406Z,78.46
2023-02-06T05:57:05.312Z,78.17
2023-02-06T05:59:33.054Z,78.46
2023-02-06T06:02:01.408Z,78.08
2023-02-06T06:04:29.391Z,78.08
2023-02-06T06:06:57.545Z,78.95
2023-02-06T06:09:25.352Z,78.40
2023-02-06T06:11:54.526Z,78.72
2023-02-06T06:14:22.373Z,78.18
2023-02-06T06:16:50.465Z,78.31
2023-02-06T06:19:18.957Z,78.32
2023-02-06T06:21:47.028Z,78.51
2023-02-06T06:24:14.979Z,78.83
2023-02-06T06:26:42.776Z,78.75
2023-02-06T06:29:12.019Z,78.42
2023-02-06T06:31:39.962Z,78.27
2023-02-06T06:34:07.822Z,78.44
2023-02-06T06:36:35.617Z,78.53
2023-02-06T06:39:03.772Z,78.74
2023-02-06T06:41:31.657Z,78.61
2023-02-06T06:43:59.859Z,78.49
2023-02-06T06:46:29.268Z,78.65
2023-02-06T06:48:57.193Z,78.63
2023-02-06T06:51:26.765Z,78.28
2023-02-06T06:53:54.528Z,78.38
2023-02-06T06:56:22.598Z,78.64
2023-02-06T06:58:51.242Z,78.20
2023-02-06T07:01:19.994Z,78.43
2023-02-06T07:03:49.271Z,78.34
2023-02-06T07:06:17.759Z,78.86
2023-02-06T07:08:48.545Z,78.55
2023-02-06T07:11:16.990Z,78.92
2023-02-06T07:13:47.696Z,78.44
2023-02-06T07:16:15.657Z,78.71
2023-02-06T07:18:43.709Z,79.13
2023-02-06T07:21:14.211Z,78.51
2023-02-06T07:23:42.188Z,78.72
2023-02-06T07:26:10.103Z,78.91
2023-02-06T07:28:38.511Z,78.90
2023-02-06T07:31:08.405Z,78.47
2023-02-06T07:33:36.940Z,78.80
2023-02-06T07:36:05.040Z,78.51
2023-02-06T07:38:34.165Z,78.89
2023-02-06T07:41:06.153Z,78.31
2023-02-06T07:43:34.509Z,78.78
2023-02-06T07:46:03.516Z,78.63
2023-02-06T07:48:32.227Z,78.52
2023-02-06T07:51:05.800Z,78.89
2023-02-06T07:53:36.103Z,78.92
2023-02-06T07:56:10.964Z,78.91
2023-02-06T07:58:38.898Z,78.50
2023-02-06T08:01:07.170Z,79.00
2023-02-06T08:03:35.403Z,78.37
2023-02-06T08:06:09.087Z,79.20
2023-02-06T08:08:38.627Z,78.73
2023-02-06T08:11:07.877Z,79.08
2023-02-06T08:13:36.707Z,78.83
2023-02-06T08:16:06.888Z,78.92
2023-02-06T08:18:35.118Z,78.45
2023-02-06T08:21:04.117Z,78.86
2023-02-06T08:23:32.426Z,78.84
2023-02-06T08:26:06.446Z,79.26
2023-02-06T08:28:35.153Z,79.08
2023-02-06T08:31:09.312Z,79.10
2023-02-06T08:33:37.148Z,79.30
2023-02-06T08:36:05.894Z,78.91
2023-02-06T08:38:33.966Z,79.11
2023-02-06T08:41:02.104Z,79.04
2023-02-06T08:43:33.098Z,79.09
2023-02-06T08:46:01.506Z,79.39
2023-02-06T08:48:29.463Z,79.19
2023-02-06T08:51:04.862Z,79.25
2023-02-06T08:53:33.153Z,79.29
2023-02-06T08:56:02.238Z,79.29
2023-02-06T08:58:32.232Z,79.26
2023-02-06T09:01:00.619Z,79.47
2023-02-06T09:03:28.547Z,79.56
2023-02-06T09:06:09.432Z,79.72
2023-02-06T09:08:38.660Z,79.46
2023-02-06T09:11:07.893Z,79.64
2023-02-06T09:13:37.546Z,79.34
2023-02-06T09:16:07.088Z,79.99
2023-02-06T09:18:35.361Z,79.78
2023-02-06T09:21:10.186Z,79.96
2023-02-06T09:23:39.064Z,79.86
2023-02-06T09:26:07.278Z,79.92
2023-02-06T09:28:36.915Z,80.21
2023-02-06T09:31:05.286Z,79.73
2023-02-06T09:33:33.516Z,79.99
2023-02-06T09:36:06.861Z,80.30
2023-02-06T09:38:35.100Z,79.94
2023-02-06T09:41:07.377Z,79.71
2023-02-06T09:43:37.293Z,80.15
2023-02-06T09:46:10.311Z,80.18
2023-02-06T09:48:40.645Z,80.19
2023-02-06T09:51:17.726Z,80.17
2023-02-06T09:53:56.405Z,80.10
2023-02-06T09:56:37.582Z,80.11
2023-02-06T09:59:16.182Z,80.24
2023-02-06T10:01:50.695Z,80.38
2023-02-06T10:04:41.655Z,80.13
2023-02-06T10:07:27.296Z,80.38
2023-02-06T10:10:02.249Z,80.28
2023-02-06T10:12:37.535Z,80.57
2023-02-06T10:15:14.057Z,80.89
2023-02-06T10:17:50.254Z,80.89
2023-02-06T10:20:23.641Z,80.95
2023-02-06T10:23:00.115Z,80.73
2023-02-06T10:25:32.229Z,80.54
2023-02-06T10:28:04.002Z,80.90
2023-02-06T10:30:52.849Z,80.52
2023-02-06T10:33:27.343Z,80.50
2023-02-06T10:36:04.402Z,80.79
2023-02-06T10:38:57.540Z,80.64
2023-02-06T10:41:35.519Z,80.59
2023-02-06T10:44:12.312Z,80.88
2023-02-06T10:46:48.350Z,80.46
2023-02-06T10:49:23.200Z,81.23
2023-02-06T10:51:54.317Z,81.10
2023-02-06T10:54:27.250Z,80.80
2023-02-06T10:56:57.967Z,80.98
2023-02-06T10:59:30.160Z,81.00
2023-02-06T11:02:14.726Z,81.20
2023-02-06T11:04:47.609Z,80.92
2023-02-06T11:07:25.132Z,80.87
2023-02-06T11:09:53.438Z,81.48
2023-02-06T11:12:29.723Z,80.74
2023-02-06T11:15:01.768Z,80.77
2023-02-06T11:17:32.159Z,81.10
2023-02-06T11:20:05.344Z,80.82
2023-02-06T11:22:38.844Z,80.50
2023-02-06T11:25:30.404Z,80.41
2023-02-06T11:27:59.612Z,81.37
2023-02-06T11:30:34.902Z,80.29
2023-02-06T11:33:07.179Z,80.38
2023-02-06T11:35:40.122Z,80.34
2023-02-06T11:38:15.926Z,80.69
2023-02-06T11:40:44.603Z,80.24
2023-02-06T11:43:21.979Z,80.43
2023-02-06T11:45:53.902Z,80.16
2023-02-06T11:48:38.865Z,80.41
2023-02-06T11:51:09.130Z,80.52
2023-02-06T11:53:38.065Z,80.25
2023-02-06T11:56:17.210Z,80.56
2023-02-06T11:58:45.858Z,80.03
2023-02-06T12:01:20.976Z,80.76
2023-02-06T12:03:59.892Z,79.94
2023-02-06T12:06:32.977Z,79.63
2023-02-06T12:09:02.888Z,80.00
2023-02-06T12:11:35.755Z,80.20
2023-02-06T12:14:07.622Z,80.54
2023-02-06T12:16:40.235Z,79.88
2023-02-06T12:19:17.701Z,80.39
2023-02-06T12:21:49.655Z,79.79
2023-02-06T12:24:35.245Z,80.00
2023-02-06T12:27:11.667Z,79.75
2023-02-06T12:29:44.545Z,80.22
2023-02-06T12:32:16.253Z,79.86
2023-02-06T12:34:53.961Z,79.22
2023-02-06T12:37:26.892Z,79.28
2023-02-06T12:39:54.758Z,79.93
2023-02-06T12:42:37.958Z,79.09
2023-02-06T12:45:16.034Z,79.75
2023-02-06T12:47:49.512Z,79.35
2023-02-06T12:50:24.474Z,79.25
2023-02-06T12:52:56.805Z,79.07
2023-02-06T12:55:31.290Z,78.87
2023-02-06T12:57:59.971Z,79.53
2023-02-06T13:00:55.168Z,79.31
2023-02-06T13:03:32.435Z,78.75
2023-02-06T13:06:14.520Z,78.93
2023-02-06T13:08:47.376Z,79.23
2023-02-06T13:11:27.673Z,79.08
2023-02-06T13:14:20.737Z,79.23
2023-02-06T13:17:06.738Z,78.43
2023-02-06T13:19:54.354Z,78.73
2023-02-06T13:22:37.969Z,78.73
2023-02-06T13:25:51.768Z,78.40
2023-02-06T13:28:47.463Z,78.69
2023-02-06T13:31:27.669Z,78.62
2023-02-06T13:34:01.443Z,78.45
2023-02-06T13:36:44.966Z,78.45
2023-02-06T13:39:26.249Z,78.40
2023-02-06T13:41:54.735Z,78.42
2023-02-06T13:44:27.899Z,78.04
2023-02-06T13:47:29.825Z,78.53
2023-02-06T13:50:26.088Z,78.28
2023-02-06T13:53:07.040Z,77.99
2023-02-06T13:55:47.354Z,78.12
2023-02-06T13:58:39.862Z,78.07
2023-02-06T14:01:14.719Z,78.06
2023-02-06T14:03:47.580Z,77.99
2023-02-06T14:06:41.507Z,77.79
2023-02-06T14:09:40.059Z,77.93
2023-02-06T14:12:34.157Z,78.00
2023-02-06T14:15:15.380Z,77.80
2023-02-06T14:17:58.027Z,77.83
2023-02-06T14:20:35.249Z,77.61
2023-02-06T14:23:15.358Z,77.48
2023-02-06T14:25:57.283Z,77.72
2023-02-06T14:28:37.293Z,77.58
2023-02-06T14:31:19.892Z,77.47
2023-02-06T14:33:57.990Z,77.82
2023-02-06T14:36:40.302Z,77.28
2023-02-06T14:39:44.354Z,77.26
2023-02-06T14:42:21.016Z,77.34
2023-02-06T14:44:57.208Z,77.25
2023-02-06T14:47:28.866Z,77.49
2023-02-06T14:49:59.112Z,77.12
2023-02-06T14:52:30.482Z,77.31
2023-02-06T14:54:58.488Z,77.31
2023-02-06T14:57:27.988Z,77.41
2023-02-06T14:59:59.151Z,77.31
2023-02-06T15:02:31.168Z,77.31
2023-02-06T15:05:00.015Z,77.45
2023-02-06T15:07:31.776Z,76.97
2023-02-06T15:10:03.803Z,77.00
2023-02-06T15:12:32.142Z,77.16
2023-02-06T15:15:05.400Z,77.05
2023-02-06T15:17:34.475Z,76.82
2023-02-06T15:20:26.361Z,76.60
2023-02-06T15:23:04.913Z,76.63
2023-02-06T15:26:04.775Z,76.34
2023-02-06T15:28:37.956Z,76.64
2023-02-06T15:31:17.974Z,76.60
2023-02-06T15:33:49.471Z,76.59
2023-02-06T15:36:23.280Z,76.63
2023-02-06T15:38:52.593Z,76.56
2023-02-06T15:41:20.825Z,76.50
2023-02-06T15:43:49.524Z,76.22
2023-02-06T15:46:18.821Z,76.38
2023-02-06T15:48:52.895Z,76.35
2023-02-06T15:51:23.699Z,76.30
2023-02-06T15:53:53.432Z,76.22
2023-02-06T15:56:25.835Z,76.27
2023-02-06T15:59:00.111Z,76.11
2023-02-06T16:01:34.957Z,76.14
2023-02-06T16:04:08.837Z,76.15
2023-02-06T16:06:37.576Z,76.01
2023-02-06T16:09:08.540Z,76.02
2023-02-06T16:11:47.489Z,75.80
2023-02-06T16:14:22.823Z,76.03
2023-02-06T16:17:00.229Z,76.01
2023-02-06T16:19:41.124Z,75.83
2023-02-06T16:22:18.279Z,75.84
2023-02-06T16:24:46.094Z,75.79
2023-02-06T16:27:20.509Z,75.79
2023-02-06T16:29:52.949Z,75.98
2023-02-06T16:32:26.141Z,75.92
2023-02-06T16:34:54.565Z,75.84
2023-02-06T16:37:26.827Z,75.77
2023-02-06T16:39:55.157Z,75.75
2023-02-06T16:42:24.805Z,75.70
2023-02-06T16:44:59.370Z,75.74
2023-02-06T16:47:28.501Z,75.74
2023-02-06T16:49:56.345Z,75.80
2023-02-06T16:52:26.647Z,75.73
2023-02-06T16:54:57.842Z,75.82
2023-02-06T16:57:29.960Z,75.73
2023-02-06T16:59:59.080Z,75.72
2023-02-06T17:02:58.544Z,75.49
2023-02-06T17:05:29.157Z,75.84
2023-02-06T17:07:57.192Z,75.61
2023-02-06T17:10:27.127Z,75.60
2023-02-06T17:12:55.296Z,75.63
2023-02-06T17:15:23.339Z,75.76
2023-02-06T17:17:53.718Z,75.75
2023-02-06T17:20:30.988Z,75.69
2023-02-06T17:22:59.174Z,75.46
2023-02-06T17:25:27.068Z,75.74
2023-02-06T17:27:56.872Z,75.64
2023-02-06T17:30:26.479Z,75.79
2023-02-06T17:32:54.591Z,75.51
2023-02-06T17:35:22.746Z,75.62
2023-02-06T17:37:52.386Z,75.71
2023-02-06T17:40:22.334Z,75.41
2023-02-06T17:42:50.318Z,75.64
2023-02-06T17:45:18.345Z,75.48
2023-02-06T17:47:46.479Z,75.66
2023-02-06T17:50:17.598Z,75.48
2023-02-06T17:52:45.622Z,75.62
2023-02-06T17:55:15.494Z,75.63
2023-02-06T17:57:43.455Z,75.82
2023-02-06T18:00:15.159Z,75.45
2023-02-06T18:02:43.250Z,75.64
2023-02-06T18:05:12.126Z,75.54
2023-02-06T18:07:40.618Z,75.47
2023-02-06T18:10:10.206Z,75.56
2023-02-06T18:12:40.102Z,75.69
2023-02-06T18:15:09.088Z,75.85
2023-02-06T18:17:37.184Z,75.70
2023-02-06T18:20:05.695Z,75.54
2023-02-06T18:22:40.098Z,75.77
2023-02-06T18:25:14.507Z,75.80
2023-02-06T18:27:45.752Z,75.81
2023-02-06T18:30:17.296Z,75.60
2023-02-06T18:32:46.100Z,75.69
2023-02-06T18:35:16.316Z,75.76
2023-02-06T18:37:44.439Z,75.57
2023-02-06T18:40:13.280Z,75.46
2023-02-06T18:42:53.529Z,75.51
2023-02-06T18:45:24.618Z,75.53
2023-02-06T18:47:52.709Z,75.49
2023-02-06T18:50:22.169Z,75.35
2023-02-06T18:52:50.992Z,75.49
2023-02-06T18:55:19.264Z,75.34
2023-02-06T18:57:47.586Z,75.42
2023-02-06T19:00:16.710Z,75.32
2023-02-06T19:02:46.262Z,75.33
2023-02-06T19:05:14.822Z,75.56
2023-02-06T19:07:42.982Z,75.30
2023-02-06T19:10:13.165Z,75.55
2023-02-06T19:12:41.218Z,75.33
2023-02-06T19:15:10.515Z,75.43
2023-02-06T19:17:38.953Z,75.24
2023-02-06T19:20:10.179Z,75.26
2023-02-06T19:22:39.602Z,75.20
2023-02-06T19:25:14.455Z,75.24
2023-02-06T19:27:42.993Z,75.41
2023-02-06T19:30:13.066Z,74.73
2023-02-06T19:32:41.450Z,75.15
2023-02-06T19:35:12.004Z,75.22
2023-02-06T19:37:41.855Z,75.22
2023-02-06T19:40:10.750Z,74.99
2023-02-06T19:42:39.874Z,75.17
2023-02-06T19:45:08.133Z,75.44
2023-02-06T19:47:36.625Z,75.27
2023-02-06T19:50:04.485Z,75.11
2023-02-06T19:52:35.313Z,75.17
2023-02-06T19:55:03.567Z,75.26
2023-02-06T19:57:31.726Z,75.23
2023-02-06T19:59:59.661Z,75.06
2023-02-06T20:02:27.847Z,75.30
2023-02-06T20:04:55.782Z,75.14
2023-02-06T20:07:23.828Z,75.24
2023-02-06T20:09:55.556Z,75.06
2023-02-06T20:12:23.609Z,75.29
2023-02-06T20:14:51.814Z,75.37
2023-02-06T20:17:19.605Z,75.23
2023-02-06T20:19:48.617Z,75.19
2023-02-06T20:22:16.821Z,75.39
2023-02-06T20:24:44.796Z,75.34
2023-02-06T20:27:15.171Z,75.15
2023-02-06T20:29:43.470Z,75.04
2023-02-06T20:32:12.176Z,75.32
2023-02-06T20:34:40.161Z,75.39
2023-02-06T20:37:08.131Z,75.25
2023-02-06T20:39:36.144Z,75.43
2023-02-06T20:42:04.157Z,75.30
2023-02-06T20:44:33.554Z,75.42
2023-02-06T20:47:01.589Z,75.25
2023-02-06T20:49:31.210Z,75.62
2023-02-06T20:51:59.595Z,75.28
2023-02-06T20:54:27.314Z,75.61
2023-02-06T20:56:55.239Z,75.42
2023-02-06T20:59:23.627Z,75.52
2023-02-06T21:01:52.870Z,75.50
2023-02-06T21:04:21.713Z,75.43
2023-02-06T21:06:50.133Z,75.68
2023-02-06T21:09:19.397Z,75.54
2023-02-06T21:11:50.334Z,75.71
2023-02-06T21:14:19.571Z,75.81
2023-02-06T21:16:48.286Z,75.67
2023-02-06T21:19:20.739Z,75.74
2023-02-06T21:21:49.206Z,75.81
2023-02-06T21:24:18.670Z,75.93
2023-02-06T21:26:46.840Z,75.59
2023-02-06T21:29:15.875Z,75.75
2023-02-06T21:31:44.792Z,75.89
2023-02-06T21:34:15.093Z,75.98
2023-02-06T21:36:44.638Z,75.86
2023-02-06T21:39:16.493Z,75.95
2023-02-06T21:41:45.138Z,75.91
2023-02-06T21:44:13.265Z,75.95
2023-02-06T21:46:41.527Z,75.76
2023-02-06T21:49:13.982Z,76.06
2023-02-06T21:51:42.064Z,75.89
2023-02-06T21:54:13.937Z,75.91
2023-02-06T21:56:41.961Z,75.84
2023-02-06T21:59:12.686Z,76.12
2023-02-06T22:01:41.360Z,76.28
2023-02-06T22:04:11.260Z,76.30
2023-02-06T22:06:40.287Z,75.89
2023-02-06T22:09:15.882Z,76.12
2023-02-06T22:11:44.895Z,76.35
2023-02-06T22:14:15.977Z,76.31
2023-02-06T22:16:46.597Z,75.97
2023-02-06T22:19:15.228Z,76.00
2023-02-06T22:21:43.500Z,76.47
2023-02-06T22:24:13.681Z,76.04
2023-02-06T22:26:42.829Z,76.14
2023-02-06T22:29:13.554Z,76.39
2023-02-06T22:31:43.450Z,76.26
2023-02-06T22:34:16.378Z,76.45
2023-02-06T22:36:45.550Z,76.22
2023-02-06T22:39:15.902Z,76.64
2023-02-06T22:41:46.150Z,76.33
2023-02-06T22:44:16.469Z,76.45
2023-02-06T22:46:46.315Z,76.49
2023-02-06T22:49:14.873Z,76.65
2023-02-06T22:51:43.439Z,76.13
2023-02-06T22:54:11.737Z,76.48
2023-02-06T22:56:42.492Z,76.72
2023-02-06T22:59:13.173Z,76.95
2023-02-06T23:01:47.477Z,76.56
2023-02-06T23:04:18.145Z,76.81
2023-02-06T23:06:46.568Z,76.77
2023-02-06T23:09:17.691Z,76.83
2023-02-06T23:11:48.450Z,76.95
2023-02-06T23:14:17.938Z,76.74
2023-02-06T23:16:47.079Z,77.06
2023-02-06T23:19:16.126Z,76.59
2023-02-06T23:21:46.208Z,76.76
2023-02-06T23:24:15.128Z,76.83
2023-02-06T23:26:44.902Z,77.13
2023-02-06T23:29:17.335Z,77.26
2023-02-06T23:31:46.417Z,76.49
2023-02-06T23:34:15.219Z,76.82
2023-02-06T23:36:44.245Z,76.71
2023-02-06T23:39:12.480Z,76.89
2023-02-06T23:41:41.072Z,76.76
2023-02-06T23:44:11.817Z,76.59
2023-02-06T23:46:42.270Z,77.33
2023-02-06T23:49:11.346Z,77.04
2023-02-06T23:51:39.681Z,76.73
2023-02-06T23:54:09.081Z,77.02
2023-02-06T23:56:37.093Z,76.64
2023-02-06T23:59:06.284Z,76.99
